createdAt,value
2022-09-20T00:00:56.087Z,0.70
2022-09-20T00:01:55.962Z,0.70
2022-09-20T00:02:56.427Z,0.50
2022-09-20T00:03:56.185Z,0.70
2022-09-20T00:04:55.923Z,1.00
2022-09-20T00:05:56.433Z,0.90
2022-09-20T00:06:56.120Z,0.90
2022-09-20T00:07:56.010Z,0.80
2022-09-20T00:08:56.167Z,0.70
2022-09-20T00:09:56.358Z,0.90
2022-09-20T00:10:55.930Z,0.80
2022-09-20T00:11:55.864Z,0.70
2022-09-20T00:12:55.812Z,0.80
2022-09-20T00:13:55.849Z,0.70
2022-09-20T00:14:55.768Z,0.70
2022-09-20T00:15:55.846Z,0.80
2022-09-20T00:16:56.058Z,1.00
2022-09-20T00:17:55.915Z,0.80
2022-09-20T00:18:55.847Z,0.80
2022-09-20T00:19:55.880Z,0.60
2022-09-20T00:20:55.762Z,0.80
2022-09-20T00:21:55.649Z,0.70
2022-09-20T00:22:55.722Z,0.70
2022-09-20T00:23:55.600Z,0.50
2022-09-20T00:24:55.566Z,0.70
2022-09-20T00:25:55.788Z,0.80
2022-09-20T00:26:55.795Z,0.70
2022-09-20T00:27:55.593Z,0.70
2022-09-20T00:28:55.524Z,0.80
2022-09-20T00:30:05.048Z,1.10
2022-09-20T00:30:55.466Z,0.90
2022-09-20T00:31:55.858Z,0.60
2022-09-20T00:32:55.507Z,0.60
2022-09-20T00:33:55.496Z,1.00
2022-09-20T00:34:55.515Z,0.50
2022-09-20T00:35:55.426Z,0.80
2022-09-20T00:36:55.585Z,0.90
2022-09-20T00:37:55.575Z,0.60
2022-09-20T00:38:55.354Z,0.70
2022-09-20T00:39:55.487Z,1.00
2022-09-20T00:40:55.533Z,1.00
2022-09-20T00:41:55.820Z,0.60
2022-09-20T00:42:56.207Z,0.80
2022-09-20T00:43:55.713Z,0.70
2022-09-20T00:44:55.630Z,0.50
2022-09-20T00:45:55.461Z,0.60
2022-09-20T00:46:55.457Z,0.70
2022-09-20T00:47:55.277Z,0.60
2022-09-20T00:48:55.545Z,0.60
2022-09-20T00:49:55.353Z,0.80
2022-09-20T00:50:55.387Z,0.60
2022-09-20T00:51:55.253Z,0.90
2022-09-20T00:52:55.484Z,0.80
2022-09-20T00:53:55.583Z,0.80
2022-09-20T00:54:55.649Z,0.80
2022-09-20T00:55:55.281Z,0.80
2022-09-20T00:56:55.184Z,1.10
2022-09-20T00:57:55.226Z,0.70
2022-09-20T00:58:55.530Z,0.80
2022-09-20T00:59:55.202Z,1.10
2022-09-20T01:00:55.482Z,0.70
2022-09-20T01:01:55.160Z,0.90
2022-09-20T01:02:55.114Z,0.80
2022-09-20T01:03:55.143Z,0.90
2022-09-20T01:04:55.251Z,0.90
2022-09-20T01:05:55.035Z,0.80
2022-09-20T01:06:55.684Z,0.50
2022-09-20T01:07:55.083Z,1.00
2022-09-20T01:08:55.275Z,0.60
2022-09-20T01:09:55.303Z,0.90
2022-09-20T01:10:55.083Z,0.70
2022-09-20T01:11:55.425Z,0.90
2022-09-20T01:12:55.198Z,0.90
2022-09-20T01:13:55.210Z,0.80
2022-09-20T01:14:54.966Z,0.80
2022-09-20T01:15:55.025Z,1.10
2022-09-20T01:16:55.155Z,0.60
2022-09-20T01:17:55.252Z,1.00
2022-09-20T01:18:55.381Z,0.80
2022-09-20T01:19:54.957Z,1.00
2022-09-20T01:20:55.105Z,0.70
2022-09-20T01:21:55.064Z,0.80
2022-09-20T01:22:55.434Z,0.70
2022-09-20T01:23:54.862Z,0.70
2022-09-20T01:24:55.061Z,0.90
2022-09-20T01:25:54.872Z,0.70
2022-09-20T01:26:54.854Z,0.70
2022-09-20T01:27:55.105Z,0.80
2022-09-20T01:28:54.817Z,0.80
2022-09-20T01:29:54.806Z,0.70
2022-09-20T01:30:55.015Z,0.90
2022-09-20T01:31:54.897Z,0.60
2022-09-20T01:32:54.797Z,1.00
2022-09-20T01:33:55.270Z,0.70
2022-09-20T01:34:54.657Z,0.90
2022-09-20T01:35:54.805Z,0.60
2022-09-20T01:36:54.740Z,0.70
2022-09-20T01:37:54.764Z,0.90
2022-09-20T01:38:54.558Z,0.80
2022-09-20T01:39:54.800Z,0.70
2022-09-20T01:40:55.020Z,0.80
2022-09-20T01:41:55.251Z,0.70
2022-09-20T01:42:54.851Z,0.80
2022-09-20T01:43:54.511Z,0.70
2022-09-20T01:44:55.123Z,0.60
2022-09-20T01:45:54.975Z,0.70
2022-09-20T01:46:55.434Z,0.70
2022-09-20T01:47:54.696Z,0.70
2022-09-20T01:48:55.097Z,0.70
2022-09-20T01:49:54.631Z,0.60
2022-09-20T01:50:56.280Z,0.70
2022-09-20T01:51:54.521Z,0.80
2022-09-20T01:52:54.661Z,1.10
2022-09-20T01:53:54.457Z,0.60
2022-09-20T01:54:54.483Z,0.80
2022-09-20T01:55:54.553Z,0.80
2022-09-20T01:56:54.385Z,0.60
2022-09-20T01:57:54.488Z,0.60
2022-09-20T01:59:12.771Z,0.80
2022-09-20T01:59:55.438Z,0.60
2022-09-20T02:00:54.686Z,0.80
2022-09-20T02:01:54.600Z,0.60
2022-09-20T02:02:54.452Z,0.80
2022-09-20T02:03:54.796Z,1.00
2022-09-20T02:04:54.424Z,0.70
2022-09-20T02:05:54.619Z,0.60
2022-09-20T02:06:54.760Z,1.00
2022-09-20T02:07:54.460Z,0.80
2022-09-20T02:08:54.340Z,0.50
2022-09-20T02:09:54.476Z,0.70
2022-09-20T02:10:54.596Z,0.70
2022-09-20T02:11:54.625Z,0.90
2022-09-20T02:12:54.338Z,0.80
2022-09-20T02:13:54.231Z,0.70
2022-09-20T02:14:54.648Z,0.80
2022-09-20T02:15:54.356Z,0.90
2022-09-20T02:16:54.340Z,0.80
2022-09-20T02:17:54.450Z,0.60
2022-09-20T02:18:54.221Z,0.70
2022-09-20T02:19:54.199Z,0.80
2022-09-20T02:20:54.244Z,1.10
2022-09-20T02:21:54.447Z,0.60
2022-09-20T02:22:54.123Z,1.30
2022-09-20T02:23:54.360Z,0.70
2022-09-20T02:24:53.996Z,0.80
2022-09-20T02:25:54.105Z,0.70
2022-09-20T02:26:54.089Z,0.80
2022-09-20T02:27:54.226Z,0.80
2022-09-20T02:28:54.153Z,0.80
2022-09-20T02:29:54.264Z,1.10
2022-09-20T02:30:54.678Z,1.10
2022-09-20T02:31:54.086Z,0.70
2022-09-20T02:32:54.117Z,0.70
2022-09-20T02:33:54.083Z,0.80
2022-09-20T02:34:53.924Z,0.90
2022-09-20T02:35:54.590Z,0.90
2022-09-20T02:36:54.011Z,0.80
2022-09-20T02:37:54.400Z,0.60
2022-09-20T02:38:54.156Z,0.80
2022-09-20T02:39:53.996Z,1.10
2022-09-20T02:40:54.081Z,0.90
2022-09-20T02:41:54.232Z,0.70
2022-09-20T02:42:53.847Z,0.90
2022-09-20T02:43:54.363Z,0.70
2022-09-20T02:44:54.183Z,1.00
2022-09-20T02:45:53.983Z,0.90
2022-09-20T02:46:54.092Z,0.70
2022-09-20T02:47:54.050Z,0.80
2022-09-20T02:48:54.169Z,0.60
2022-09-20T02:49:53.729Z,0.80
2022-09-20T02:50:54.155Z,0.80
2022-09-20T02:51:53.855Z,0.70
2022-09-20T02:52:54.658Z,0.80
2022-09-20T02:53:53.995Z,0.90
2022-09-20T02:54:54.202Z,0.90
2022-09-20T02:55:54.896Z,1.10
2022-09-20T02:56:54.788Z,0.80
2022-09-20T02:57:54.570Z,0.90
2022-09-20T02:58:54.154Z,0.70
2022-09-20T02:59:53.987Z,0.70
2022-09-20T03:00:53.985Z,0.70
2022-09-20T03:01:53.737Z,1.20
2022-09-20T03:02:53.944Z,0.90
2022-09-20T03:03:53.780Z,0.70
2022-09-20T03:04:53.659Z,0.80
2022-09-20T03:05:53.983Z,1.10
2022-09-20T03:06:54.627Z,1.10
2022-09-20T03:07:54.809Z,0.80
2022-09-20T03:08:53.721Z,0.80
2022-09-20T03:09:54.092Z,0.60
2022-09-20T03:10:54.182Z,0.70
2022-09-20T03:11:54.127Z,0.80
2022-09-20T03:12:53.605Z,0.90
2022-09-20T03:13:53.606Z,0.80
2022-09-20T03:14:53.762Z,0.60
2022-09-20T03:15:53.980Z,0.90
2022-09-20T03:16:53.665Z,0.80
2022-09-20T03:17:53.835Z,0.80
2022-09-20T03:18:53.435Z,0.90
2022-09-20T03:19:53.515Z,0.70
2022-09-20T03:20:55.045Z,0.90
2022-09-20T03:21:53.476Z,0.80
2022-09-20T03:22:54.007Z,0.90
2022-09-20T03:23:53.339Z,0.70
2022-09-20T03:24:53.759Z,0.70
2022-09-20T03:25:53.816Z,0.60
2022-09-20T03:26:58.880Z,0.80
2022-09-20T03:27:53.504Z,0.60
2022-09-20T03:28:54.267Z,0.80
2022-09-20T03:29:53.214Z,0.70
2022-09-20T03:30:53.576Z,0.90
2022-09-20T03:31:53.649Z,0.90
2022-09-20T03:32:53.662Z,0.80
2022-09-20T03:33:53.402Z,0.70
2022-09-20T03:34:53.271Z,0.70
2022-09-20T03:35:53.142Z,0.90
2022-09-20T03:36:53.365Z,0.90
2022-09-20T03:37:53.316Z,0.90
2022-09-20T03:38:53.199Z,0.90
2022-09-20T03:39:53.032Z,0.90
2022-09-20T03:40:53.700Z,0.60
2022-09-20T03:41:53.300Z,0.90
2022-09-20T03:42:53.093Z,1.00
2022-09-20T03:43:52.995Z,0.70
2022-09-20T03:44:53.099Z,0.90
2022-09-20T03:45:53.157Z,0.80
2022-09-20T03:46:53.851Z,0.70
2022-09-20T03:47:53.283Z,0.80
2022-09-20T03:48:53.146Z,0.80
2022-09-20T03:49:53.249Z,0.80
2022-09-20T03:50:53.519Z,0.70
2022-09-20T03:51:53.843Z,0.90
2022-09-20T03:52:53.536Z,1.00
2022-09-20T03:53:56.407Z,0.80
2022-09-20T03:54:53.460Z,0.90
2022-09-20T03:55:53.024Z,0.70
2022-09-20T03:57:08.163Z,0.70
2022-09-20T03:58:56.748Z,1.00
2022-09-20T04:00:04.101Z,0.90
2022-09-20T04:00:52.682Z,0.70
2022-09-20T04:01:51.766Z,0.50
2022-09-20T04:02:51.148Z,0.80
2022-09-20T04:03:51.318Z,1.00
2022-09-20T04:04:51.470Z,1.00
2022-09-20T04:05:51.016Z,0.70
2022-09-20T04:06:51.826Z,0.80
2022-09-20T04:07:51.333Z,0.90
2022-09-20T04:08:51.617Z,0.90
2022-09-20T04:09:51.433Z,0.90
2022-09-20T04:10:50.975Z,0.80
2022-09-20T04:11:50.952Z,1.00
2022-09-20T04:12:51.066Z,0.90
2022-09-20T04:13:51.239Z,1.10
2022-09-20T04:14:51.318Z,0.90
2022-09-20T04:15:51.003Z,1.00
2022-09-20T04:16:52.002Z,1.00
2022-09-20T04:17:50.936Z,1.20
2022-09-20T04:18:51.585Z,0.70
2022-09-20T04:19:51.059Z,0.90
2022-09-20T04:20:51.459Z,1.10
2022-09-20T04:21:51.100Z,0.90
2022-09-20T04:22:50.917Z,1.10
2022-09-20T04:23:51.160Z,0.90
2022-09-20T04:24:51.458Z,1.10
2022-09-20T04:25:51.608Z,0.90
2022-09-20T04:26:50.865Z,0.90
2022-09-20T04:27:50.704Z,1.30
2022-09-20T04:28:51.171Z,1.10
2022-09-20T04:29:50.851Z,0.90
2022-09-20T04:30:50.803Z,1.20
2022-09-20T04:31:54.144Z,0.90
2022-09-20T04:32:51.933Z,0.60
2022-09-20T04:33:52.149Z,1.10
2022-09-20T04:34:52.668Z,0.70
2022-09-20T04:35:52.207Z,0.90
2022-09-20T04:36:51.547Z,1.10
2022-09-20T04:37:51.007Z,1.40
2022-09-20T04:38:51.658Z,1.20
2022-09-20T04:40:01.597Z,0.70
2022-09-20T04:40:52.248Z,0.90
2022-09-20T04:41:50.866Z,1.20
2022-09-20T04:42:50.886Z,0.90
2022-09-20T04:43:51.078Z,1.00
2022-09-20T04:44:50.478Z,1.00
2022-09-20T04:45:50.365Z,0.80
2022-09-20T04:46:55.711Z,0.90
2022-09-20T04:47:50.782Z,0.90
2022-09-20T04:48:51.065Z,0.90
2022-09-20T04:49:50.400Z,1.20
2022-09-20T04:50:50.285Z,0.90
2022-09-20T04:51:50.863Z,0.80
2022-09-20T04:52:52.482Z,1.30
2022-09-20T04:53:51.619Z,1.10
2022-09-20T04:54:51.540Z,0.80
2022-09-20T04:56:03.095Z,1.00
2022-09-20T04:57:25.652Z,0.80
2022-09-20T05:01:34.735Z,1.00
2022-09-20T05:02:10.045Z,1.00
2022-09-20T05:03:09.931Z,1.00
2022-09-20T05:04:09.779Z,1.20
2022-09-20T05:05:11.465Z,1.00
2022-09-20T05:06:09.823Z,1.10
2022-09-20T05:07:09.937Z,0.90
2022-09-20T05:08:09.592Z,0.80
2022-09-20T05:09:09.929Z,1.00
2022-09-20T05:10:10.025Z,0.90
2022-09-20T05:11:10.467Z,1.00
2022-09-20T05:12:09.857Z,1.10
2022-09-20T05:13:10.543Z,0.90
2022-09-20T05:14:09.843Z,1.20
2022-09-20T05:15:09.444Z,1.40
2022-09-20T05:16:10.598Z,1.10
2022-09-20T05:17:09.690Z,1.20
2022-09-20T05:18:10.022Z,1.20
2022-09-20T05:19:10.555Z,0.90
2022-09-20T05:20:10.826Z,0.90
2022-09-20T05:21:11.667Z,1.00
2022-09-20T05:22:09.848Z,1.00
2022-09-20T05:23:11.348Z,1.10
2022-09-20T05:24:12.065Z,1.20
2022-09-20T05:25:11.657Z,1.10
2022-09-20T05:26:09.404Z,1.20
2022-09-20T05:27:09.912Z,1.00
2022-09-20T05:28:11.436Z,1.00
2022-09-20T05:29:10.315Z,1.00
2022-09-20T05:30:10.452Z,1.20
2022-09-20T05:31:09.715Z,0.90
2022-09-20T05:32:10.254Z,1.10
2022-09-20T05:33:09.422Z,1.00
2022-09-20T05:34:09.965Z,1.10
2022-09-20T05:35:09.975Z,1.10
2022-09-20T05:36:09.489Z,1.10
2022-09-20T05:37:09.735Z,1.00
2022-09-20T05:38:10.157Z,0.90
2022-09-20T05:39:09.896Z,1.10
2022-09-20T05:40:10.698Z,1.00
2022-09-20T05:41:09.496Z,1.00
2022-09-20T05:42:11.155Z,1.20
2022-09-20T05:43:12.710Z,1.00
2022-09-20T05:44:09.373Z,1.00
2022-09-20T05:45:09.228Z,1.00
2022-09-20T05:46:10.771Z,1.10
2022-09-20T05:47:09.919Z,1.10
2022-09-20T05:48:12.833Z,1.00
2022-09-20T05:49:11.957Z,1.20
2022-09-20T05:50:09.218Z,1.10
2022-09-20T05:51:09.361Z,0.80
2022-09-20T05:52:09.758Z,1.10
2022-09-20T05:53:11.479Z,1.20
2022-09-20T05:54:09.534Z,1.20
2022-09-20T05:55:10.417Z,0.90
2022-09-20T05:56:13.048Z,1.00
2022-09-20T05:57:09.393Z,0.90
2022-09-20T05:58:09.195Z,1.10
2022-09-20T05:59:11.610Z,1.10
2022-09-20T06:00:09.923Z,1.00
2022-09-20T06:01:08.876Z,1.20
2022-09-20T06:02:09.683Z,1.00
2022-09-20T06:03:09.258Z,0.90
2022-09-20T06:04:08.732Z,1.10
2022-09-20T06:05:09.328Z,1.00
2022-09-20T06:06:08.698Z,1.20
2022-09-20T06:07:08.727Z,1.00
2022-09-20T06:08:09.015Z,1.00
2022-09-20T06:09:08.554Z,0.90
2022-09-20T06:10:08.688Z,0.90
2022-09-20T06:11:08.497Z,1.20
2022-09-20T06:12:08.666Z,0.90
2022-09-20T06:13:11.151Z,1.00
2022-09-20T06:14:08.992Z,1.30
2022-09-20T06:15:08.997Z,1.10
2022-09-20T06:16:10.749Z,1.00
2022-09-20T06:17:09.447Z,1.00
2022-09-20T06:18:09.979Z,0.90
2022-09-20T06:19:11.070Z,1.20
2022-09-20T06:20:11.587Z,1.00
2022-09-20T06:21:08.776Z,1.10
2022-09-20T06:22:11.131Z,0.90
2022-09-20T06:23:09.357Z,1.10
2022-09-20T06:24:08.377Z,1.30
2022-09-20T06:25:11.916Z,1.00
2022-09-20T06:26:09.431Z,1.60
2022-09-20T06:27:08.959Z,1.40
2022-09-20T06:28:10.010Z,1.10
2022-09-20T06:29:09.254Z,0.70
2022-09-20T06:35:59.779Z,1.00
2022-09-20T06:36:55.779Z,1.00
2022-09-20T06:37:50.656Z,1.10
2022-09-20T06:38:50.586Z,1.20
2022-09-20T06:39:50.643Z,1.00
2022-09-20T06:40:52.043Z,1.10
2022-09-20T06:41:52.168Z,1.40
2022-09-20T06:42:52.703Z,1.30
2022-09-20T06:43:50.601Z,0.80
2022-09-20T06:44:51.204Z,1.10
2022-09-20T06:45:50.991Z,1.10
2022-09-20T06:46:52.104Z,1.20
2022-09-20T06:47:50.807Z,1.20
2022-09-20T06:48:50.851Z,1.00
2022-09-20T06:49:50.699Z,1.20
2022-09-20T06:50:50.453Z,1.10
2022-09-20T06:51:50.949Z,1.10
2022-09-20T06:52:50.568Z,1.00
2022-09-20T06:53:50.560Z,1.30
2022-09-20T06:54:50.783Z,1.00
2022-09-20T06:55:50.525Z,1.20
2022-09-20T06:56:50.627Z,1.20
2022-09-20T06:57:50.471Z,1.10
2022-09-20T06:58:50.373Z,1.00
2022-09-20T06:59:50.913Z,1.10
2022-09-20T07:00:50.488Z,1.20
2022-09-20T07:01:50.366Z,1.30
2022-09-20T07:02:50.388Z,1.10
2022-09-20T07:03:50.527Z,1.00
2022-09-20T07:04:50.319Z,0.90
2022-09-20T07:05:50.289Z,1.10
2022-09-20T07:06:50.819Z,0.80
2022-09-20T07:07:50.526Z,0.90
2022-09-20T07:08:50.246Z,1.10
2022-09-20T07:09:50.201Z,1.00
2022-09-20T07:10:50.331Z,1.10
2022-09-20T07:11:50.959Z,0.80
2022-09-20T07:12:50.214Z,0.90
2022-09-20T07:13:50.741Z,0.90
2022-09-20T07:14:50.245Z,1.10
2022-09-20T07:15:50.711Z,1.10
2022-09-20T07:16:50.109Z,0.90
2022-09-20T07:17:50.177Z,1.10
2022-09-20T07:18:50.081Z,1.00
2022-09-20T07:19:51.670Z,0.90
2022-09-20T07:20:50.086Z,0.80
2022-09-20T07:21:50.315Z,0.90
2022-09-20T07:22:50.038Z,0.60
2022-09-20T07:23:50.114Z,0.70
2022-09-20T07:24:50.158Z,0.70
2022-09-20T07:27:16.851Z,1.10
2022-09-20T07:28:17.217Z,1.10
2022-09-20T07:29:16.206Z,1.00
2022-09-20T07:30:14.523Z,0.70
2022-09-20T07:31:15.641Z,1.00
2022-09-20T07:32:16.104Z,0.80
2022-09-20T07:33:14.347Z,0.80
2022-09-20T07:34:14.219Z,0.80
2022-09-20T07:35:14.391Z,0.80
2022-09-20T07:36:17.895Z,0.90
2022-09-20T07:37:14.197Z,0.70
2022-09-20T07:39:35.880Z,0.90
2022-09-20T07:40:32.088Z,0.80
2022-09-20T07:43:17.595Z,0.90
2022-09-20T07:44:13.826Z,0.90
2022-09-20T07:45:03.996Z,1.00
2022-09-20T07:47:37.696Z,1.20
2022-09-20T07:51:08.744Z,0.70
2022-09-20T07:52:12.735Z,0.70
2022-09-20T07:53:13.384Z,1.10
2022-09-20T07:54:12.461Z,0.50
2022-09-20T07:55:11.919Z,0.60
2022-09-20T07:59:54.854Z,0.80
2022-09-20T08:16:11.219Z,0.70
2022-09-20T08:17:23.511Z,0.70
2022-09-20T08:19:18.948Z,0.90
2022-09-20T08:23:22.400Z,0.70
2022-09-20T08:23:52.880Z,0.80
2022-09-20T08:24:52.537Z,0.60
2022-09-20T08:25:50.659Z,1.00
2022-09-20T08:30:48.059Z,0.60
2022-09-20T08:32:32.770Z,0.70
2022-09-20T08:32:45.941Z,0.40
2022-09-20T08:34:22.603Z,0.80
2022-09-20T08:34:49.391Z,0.70
2022-09-20T08:36:25.484Z,0.80
2022-09-20T08:36:46.511Z,0.70
2022-09-20T08:37:44.359Z,0.60
2022-09-20T08:40:01.705Z,0.50
2022-09-20T08:40:54.022Z,0.70
2022-09-20T08:46:09.215Z,0.50
2022-09-20T08:47:10.027Z,0.50
2022-09-20T08:48:04.296Z,0.50
2022-09-20T08:49:10.895Z,0.60
2022-09-20T08:50:10.343Z,0.50
2022-09-20T08:54:22.624Z,0.80
2022-09-20T08:55:19.252Z,0.80
2022-09-20T08:56:16.344Z,0.80
2022-09-20T08:57:29.637Z,0.50
2022-09-20T08:58:31.844Z,0.60
2022-09-20T09:01:03.573Z,0.50
2022-09-20T09:01:29.671Z,0.50
2022-09-20T09:02:30.755Z,0.70
2022-09-20T09:03:28.896Z,0.80
2022-09-20T09:04:29.892Z,0.40
2022-09-20T09:05:39.005Z,0.70
2022-09-20T09:06:30.447Z,0.50
2022-09-20T09:10:14.972Z,0.50
2022-09-20T09:11:15.626Z,0.50
2022-09-20T09:12:11.344Z,0.70
2022-09-20T09:13:11.759Z,0.50
2022-09-20T09:14:18.406Z,0.50
2022-09-20T09:15:48.116Z,0.90
2022-09-20T09:16:40.818Z,0.50
2022-09-20T09:39:23.439Z,0.60
2022-09-20T09:40:21.645Z,0.70
2022-09-20T09:41:29.179Z,0.60
2022-09-20T09:42:23.070Z,0.70
2022-09-20T09:43:21.346Z,0.70
2022-09-20T09:44:21.237Z,0.60
2022-09-20T09:45:21.535Z,0.60
2022-09-20T09:46:21.470Z,0.90
2022-09-20T09:47:21.230Z,0.40
2022-09-20T09:48:30.317Z,0.70
2022-09-20T09:49:25.736Z,0.50
2022-09-20T09:50:21.241Z,0.50
2022-09-20T09:51:21.443Z,0.60
2022-09-20T09:52:22.612Z,0.50
2022-09-20T09:53:27.303Z,0.80
2022-09-20T09:54:21.479Z,0.50
2022-09-20T09:55:27.896Z,0.60
2022-09-20T09:56:22.192Z,0.60
2022-09-20T09:57:26.022Z,0.50
2022-09-20T09:58:31.161Z,0.60
2022-09-20T09:59:28.074Z,0.70
2022-09-20T10:00:27.378Z,0.60
2022-09-20T10:01:24.254Z,0.50
2022-09-20T10:02:21.169Z,0.50
2022-09-20T10:03:21.036Z,0.90
2022-09-20T10:04:21.197Z,0.50
2022-09-20T10:05:21.316Z,0.50
2022-09-20T10:06:25.965Z,0.60
2022-09-20T10:07:21.060Z,0.50
2022-09-20T10:08:22.039Z,0.60
2022-09-20T10:09:21.612Z,0.60
2022-09-20T10:10:26.935Z,0.50
2022-09-20T10:11:28.265Z,0.50
2022-09-20T10:12:21.948Z,0.70
2022-09-20T10:13:21.350Z,0.60
2022-09-20T10:14:20.904Z,0.60
2022-09-20T10:15:20.935Z,0.40
2022-09-20T10:16:20.958Z,0.60
2022-09-20T10:17:20.883Z,0.50
2022-09-20T10:18:20.832Z,0.50
2022-09-20T10:19:25.303Z,0.40
2022-09-20T10:20:20.806Z,0.50
2022-09-20T10:21:20.917Z,0.50
2022-09-20T10:22:21.744Z,0.40
2022-09-20T10:23:58.515Z,0.60
2022-09-20T10:24:24.456Z,0.60
2022-09-20T10:25:22.742Z,0.50
2022-09-20T10:26:22.569Z,0.50
2022-09-20T10:27:20.943Z,0.60
2022-09-20T10:28:21.627Z,0.70
2022-09-20T10:29:20.862Z,0.70
2022-09-20T10:30:20.660Z,0.60
2022-09-20T10:31:25.493Z,0.40
2022-09-20T10:32:21.619Z,0.60
2022-09-20T10:33:21.580Z,0.40
2022-09-20T10:34:23.043Z,0.60
2022-09-20T10:35:21.741Z,0.70
2022-09-20T10:36:21.595Z,0.50
2022-09-20T10:37:20.576Z,0.50
2022-09-20T10:38:25.269Z,0.50
2022-09-20T10:39:42.730Z,0.50
2022-09-20T10:40:20.605Z,0.50
2022-09-20T10:41:21.094Z,0.60
2022-09-20T10:42:20.782Z,0.40
2022-09-20T10:43:21.046Z,0.70
2022-09-20T10:44:21.450Z,0.40
2022-09-20T10:45:53.350Z,0.60
2022-09-20T10:46:32.780Z,0.50
2022-09-20T10:47:24.427Z,0.50
2022-09-20T10:48:21.823Z,0.50
2022-09-20T10:49:23.438Z,0.70
2022-09-20T10:50:22.864Z,0.60
2022-09-20T10:51:43.115Z,0.50
2022-09-20T10:52:20.493Z,0.60
2022-09-20T10:53:20.789Z,0.60
2022-09-20T10:54:21.077Z,0.60
2022-09-20T10:55:20.835Z,0.40
2022-09-20T10:56:23.391Z,0.60
2022-09-20T10:57:25.031Z,0.30
2022-09-20T10:58:23.461Z,0.50
2022-09-20T10:59:23.845Z,0.40
2022-09-20T11:00:27.080Z,0.50
2022-09-20T11:01:24.628Z,0.60
2022-09-20T11:02:23.960Z,0.40
2022-09-20T11:03:20.598Z,0.70
2022-09-20T11:04:20.362Z,0.40
2022-09-20T11:05:21.661Z,0.50
2022-09-20T11:06:23.039Z,0.50
2022-09-20T11:07:21.252Z,0.50
2022-09-20T11:08:23.498Z,0.50
2022-09-20T11:09:23.353Z,0.60
2022-09-20T11:10:20.650Z,0.40
2022-09-20T11:11:32.723Z,0.40
2022-09-20T11:12:20.543Z,0.50
2022-09-20T11:13:21.840Z,0.60
2022-09-20T11:14:20.373Z,0.40
2022-09-20T11:15:21.704Z,0.40
2022-09-20T11:16:20.105Z,0.50
2022-09-20T11:17:20.037Z,0.50
2022-09-20T11:18:20.100Z,0.30
2022-09-20T11:19:23.896Z,0.40
2022-09-20T11:20:20.493Z,0.50
2022-09-20T11:21:36.369Z,0.40
2022-09-20T11:22:22.326Z,0.30
2022-09-20T11:23:21.223Z,0.40
2022-09-20T11:24:25.712Z,0.50
2022-09-20T11:25:29.702Z,0.40
2022-09-20T11:26:23.891Z,0.70
2022-09-20T11:27:22.280Z,0.40
2022-09-20T11:28:19.970Z,0.60
2022-09-20T11:29:21.622Z,0.50
2022-09-20T11:30:25.979Z,0.50
2022-09-20T11:31:25.432Z,0.60
2022-09-20T11:32:23.326Z,0.40
2022-09-20T11:33:25.060Z,0.40
2022-09-20T11:34:42.888Z,0.40
2022-09-20T11:35:26.166Z,0.30
2022-09-20T11:36:39.521Z,0.40
2022-09-20T11:37:24.482Z,0.30
2022-09-20T11:38:21.168Z,0.40
2022-09-20T11:39:22.339Z,0.40
2022-09-20T11:40:23.963Z,0.40
2022-09-20T11:41:20.907Z,0.20
2022-09-20T11:42:19.841Z,0.40
2022-09-20T11:43:20.717Z,0.30
2022-09-20T11:44:24.466Z,0.40
2022-09-20T11:45:20.191Z,0.50
2022-09-20T11:46:21.163Z,0.30
2022-09-20T11:47:42.801Z,0.20
2022-09-20T11:48:29.946Z,0.30
2022-09-20T11:49:42.230Z,0.50
2022-09-20T11:50:21.715Z,0.40
2022-09-20T11:51:20.821Z,0.50
2022-09-20T11:52:30.930Z,0.50
2022-09-20T11:53:22.288Z,0.40
2022-09-20T11:54:20.456Z,0.30
2022-09-20T11:55:21.829Z,0.70
2022-09-20T11:56:19.881Z,0.50
2022-09-20T11:57:19.580Z,0.30
2022-09-20T11:58:20.714Z,0.50
2022-09-20T11:59:30.011Z,0.40
2022-09-20T12:00:20.068Z,0.30
2022-09-20T12:01:28.081Z,0.40
2022-09-20T12:02:19.662Z,0.50
2022-09-20T12:03:34.173Z,0.40
2022-09-20T12:04:38.344Z,0.60
2022-09-20T12:05:22.640Z,0.30
2022-09-20T12:06:19.604Z,0.50
2022-09-20T12:08:51.521Z,0.40
2022-09-20T12:09:50.290Z,0.40
2022-09-20T12:10:55.944Z,0.40
2022-09-20T12:11:50.325Z,0.40
2022-09-20T12:12:50.923Z,0.60
2022-09-20T12:13:49.866Z,0.30
2022-09-20T12:14:48.814Z,0.60
2022-09-20T12:15:49.232Z,0.40
2022-09-20T12:16:51.568Z,0.50
2022-09-20T12:17:49.677Z,0.50
2022-09-20T12:18:55.623Z,0.40
2022-09-20T12:19:50.001Z,0.50
2022-09-20T12:20:48.562Z,0.40
2022-09-20T12:21:49.728Z,0.60
2022-09-20T12:22:50.589Z,0.30
2022-09-20T12:23:48.496Z,0.40
2022-09-20T12:24:48.908Z,0.40
2022-09-20T12:27:24.462Z,0.40
2022-09-20T12:28:28.011Z,0.40
2022-09-20T12:29:05.955Z,0.40
2022-09-20T12:30:20.714Z,0.50
2022-09-20T12:31:10.857Z,0.30
2022-09-20T12:32:11.781Z,0.80
2022-09-20T12:33:14.965Z,0.70
2022-09-20T12:34:07.248Z,0.60
2022-09-20T12:35:06.101Z,0.60
2022-09-20T12:36:05.950Z,0.40
2022-09-20T12:37:08.837Z,0.40
2022-09-20T12:38:06.526Z,0.80
2022-09-20T12:39:07.090Z,0.50
2022-09-20T12:40:06.825Z,0.50
2022-09-20T12:41:05.823Z,0.50
2022-09-20T12:42:06.176Z,0.50
2022-09-20T12:43:09.579Z,0.80
2022-09-20T12:44:07.259Z,0.40
2022-09-20T12:45:07.847Z,0.50
2022-09-20T12:46:12.181Z,0.50
2022-09-20T12:47:06.296Z,0.70
2022-09-20T12:48:08.774Z,0.50
2022-09-20T12:49:06.669Z,0.50
2022-09-20T12:50:05.820Z,0.40
2022-09-20T12:51:05.805Z,0.40
2022-09-20T12:52:06.616Z,0.50
2022-09-20T12:53:09.017Z,0.50
2022-09-20T12:54:16.516Z,0.50
2022-09-20T12:55:10.998Z,0.50
2022-09-20T12:56:05.657Z,0.50
2022-09-20T12:57:08.111Z,0.50
2022-09-20T12:58:11.279Z,0.60
2022-09-20T12:59:06.415Z,0.60
2022-09-20T13:00:11.571Z,0.50
2022-09-20T13:01:13.302Z,0.40
2022-09-20T13:02:10.755Z,0.60
2022-09-20T13:03:15.480Z,0.60
2022-09-20T13:04:05.536Z,0.50
2022-09-20T13:05:05.447Z,0.40
2022-09-20T13:06:08.976Z,0.50
2022-09-20T13:07:07.889Z,0.60
2022-09-20T13:08:15.560Z,0.30
2022-09-20T13:09:32.208Z,0.50
2022-09-20T13:10:05.634Z,0.60
2022-09-20T13:12:26.865Z,0.80
2022-09-20T13:13:24.477Z,0.60
2022-09-20T13:14:24.928Z,0.50
2022-09-20T13:15:23.981Z,0.50
2022-09-20T13:16:33.497Z,0.40
2022-09-20T13:17:51.883Z,0.30
2022-09-20T13:18:32.087Z,0.40
2022-09-20T13:19:26.444Z,0.50
2022-09-20T13:20:25.277Z,0.40
2022-09-20T13:21:26.697Z,0.30
2022-09-20T13:22:24.248Z,0.60
2022-09-20T13:23:24.603Z,0.40
2022-09-20T13:24:23.996Z,0.40
2022-09-20T13:25:25.215Z,0.40
2022-09-20T13:26:33.244Z,0.50
2022-09-20T13:27:24.563Z,0.40
2022-09-20T13:28:32.207Z,0.50
2022-09-20T13:29:24.022Z,0.40
2022-09-20T13:30:25.967Z,0.70
2022-09-20T13:31:25.163Z,0.60
2022-09-20T13:32:24.401Z,0.60
2022-09-20T13:33:23.812Z,0.40
2022-09-20T13:34:24.857Z,0.40
2022-09-20T13:35:26.752Z,0.40
2022-09-20T13:36:28.151Z,0.50
2022-09-20T13:37:30.322Z,0.40
2022-09-20T13:38:31.837Z,0.50
2022-09-20T13:39:24.435Z,0.50
2022-09-20T13:43:24.881Z,0.30
2022-09-20T13:43:45.773Z,0.40
2022-09-20T13:44:45.521Z,0.30
2022-09-20T13:45:47.582Z,0.40
2022-09-20T13:47:19.670Z,0.50
2022-09-20T13:47:56.427Z,0.30
2022-09-20T13:48:44.646Z,0.40
2022-09-20T13:49:46.176Z,0.50
2022-09-20T13:50:54.270Z,0.50
2022-09-20T13:51:47.294Z,0.40
2022-09-20T13:52:56.268Z,0.20
2022-09-20T13:53:51.405Z,0.40
2022-09-20T13:54:48.351Z,0.70
2022-09-20T13:55:45.248Z,0.60
2022-09-20T13:58:11.479Z,0.50
2022-09-20T13:58:51.502Z,0.50
2022-09-20T13:59:46.807Z,0.30
2022-09-20T14:02:29.487Z,0.40
2022-09-20T14:03:12.003Z,0.40
2022-09-20T14:04:33.593Z,0.40
2022-09-20T14:05:11.263Z,0.40
2022-09-20T14:06:23.413Z,0.40
2022-09-20T14:07:42.003Z,0.50
2022-09-20T14:08:11.373Z,0.60
2022-09-20T14:09:29.409Z,0.30
2022-09-20T14:13:25.245Z,0.30
2022-09-20T14:14:22.060Z,0.40
2022-09-20T14:15:09.924Z,0.40
2022-09-20T14:16:21.101Z,0.40
2022-09-20T14:19:12.217Z,0.60
2022-09-20T14:20:03.262Z,0.60
2022-09-20T14:21:13.284Z,0.60
2022-09-20T14:23:34.811Z,0.50
2022-09-20T14:26:20.905Z,0.30
2022-09-20T14:27:11.497Z,0.40
2022-09-20T14:28:11.645Z,0.40
2022-09-20T14:29:42.577Z,0.40
2022-09-20T14:30:10.341Z,0.40
2022-09-20T14:31:09.654Z,0.40
2022-09-20T14:32:10.707Z,0.60
2022-09-20T14:33:11.195Z,0.40
2022-09-20T14:34:12.366Z,0.30
2022-09-20T14:35:10.324Z,0.40
2022-09-20T14:36:13.808Z,0.50
2022-09-20T14:37:11.543Z,0.40
2022-09-20T14:38:14.643Z,0.60
2022-09-20T14:39:11.907Z,0.40
2022-09-20T14:40:24.921Z,0.40
2022-09-20T14:41:16.826Z,0.40
2022-09-20T14:42:11.054Z,0.40
2022-09-20T14:43:39.655Z,0.30
2022-09-20T14:46:45.480Z,0.50
2022-09-20T14:47:19.222Z,0.50
2022-09-20T14:48:16.957Z,0.50
2022-09-20T14:51:59.536Z,0.40
2022-09-20T14:54:07.606Z,0.40
2022-09-20T14:54:42.736Z,0.40
2022-09-20T14:57:36.428Z,0.50
2022-09-20T14:58:16.440Z,0.60
2022-09-20T14:59:13.115Z,0.40
2022-09-20T15:00:15.226Z,0.60
2022-09-20T15:01:20.302Z,0.40
2022-09-20T15:02:36.570Z,0.70